Time;durP1;ratioP1;P1;durP2;ratioP2;P2;SDS_P1;SDS_P2;PMS_P1;PMS_P2;Temp;Humidity;BMP_temperature;BMP_pressure;BME280_temperature;BME280_humidity;BME280_pressure;Samples;Min_cycle;Max_cycle;Signal;HPM_P1;HPM_P2
2023/01/18 00:01:06;;;;;;;2.67;1.58;;;;;;;;;;5036936;28;20132;-88
2023/01/18 00:03:32;;;;;;;7.72;1.70;;;;;;;;;;5038367;28;20851;-87
2023/01/18 00:06:00;;;;;;;3.33;1.42;;;;;;;;;;5025521;28;20117;-87
2023/01/18 00:08:27;;;;;;;3.88;1.60;;;;;;;;;;5023916;28;20050;-81
2023/01/18 00:10:53;;;;;;;4.00;1.63;;;;;;;;;;5020084;28;20054;-81
2023/01/18 00:13:19;;;;;;;6.57;1.67;;;;;;;;;;5021150;28;20041;-78
2023/01/18 00:15:45;;;;;;;4.22;1.58;;;;;;;;;;5019960;28;20374;-82
2023/01/18 00:18:11;;;;;;;2.33;1.60;;;;;;;;;;5041796;28;20072;-81
2023/01/18 00:20:37;;;;;;;3.78;1.50;;;;;;;;;;5028086;28;20045;-81
2023/01/18 00:23:03;;;;;;;3.33;1.80;;;;;;;;;;5048698;28;20542;-81
2023/01/18 00:25:29;;;;;;;1.73;1.48;;;;;;;;;;5031895;28;20131;-81
2023/01/18 00:27:56;;;;;;;4.78;1.58;;;;;;;;;;5051073;28;20051;-81
2023/01/18 00:30:23;;;;;;;5.85;1.60;;;;;;;;;;5037994;28;20049;-82
2023/01/18 00:32:52;;;;;;;4.82;1.85;;;;;;;;;;5026621;28;20046;-82
2023/01/18 00:35:20;;;;;;;3.08;1.67;;;;;;;;;;5019659;28;20045;-82
2023/01/18 00:37:47;;;;;;;4.18;2.00;;;;;;;;;;5032050;28;20493;-82
2023/01/18 00:40:13;;;;;;;5.00;1.73;;;;;;;;;;5040907;28;20049;-82
2023/01/18 00:45:25;;;;;;;2.83;1.63;;;;;;;;;;5033799;28;20412;-81
2023/01/18 00:47:51;;;;;;;4.60;2.03;;;;;;;;;;5030194;28;20037;-82
2023/01/18 00:50:19;;;;;;;6.80;2.30;;;;;;;;;;5036433;28;20061;-81
2023/01/18 00:52:45;;;;;;;3.85;1.83;;;;;;;;;;5041898;28;20048;-82
2023/01/18 00:55:12;;;;;;;7.63;1.70;;;;;;;;;;5037556;28;20056;-82
2023/01/18 00:57:38;;;;;;;3.25;1.70;;;;;;;;;;5014898;28;20053;-81
2023/01/18 01:00:05;;;;;;;4.05;1.77;;;;;;;;;;5057499;28;20497;-81
2023/01/18 01:02:31;;;;;;;5.32;1.98;;;;;;;;;;5027002;28;20048;-82
2023/01/18 01:07:41;;;;;;;3.15;1.80;;;;;;;;;;5023297;28;20049;-82
2023/01/18 01:10:08;;;;;;;6.95;1.85;;;;;;;;;;5013443;28;20457;-81
2023/01/18 01:26:22;;;;;;;2.38;1.90;;;;;;;;;;5026423;28;20050;-81
2023/01/18 01:28:51;;;;;;;4.93;2.00;;;;;;;;;;5028128;28;20110;-81
2023/01/18 01:31:18;;;;;;;4.63;2.00;;;;;;;;;;5016860;28;20070;-82
2023/01/18 01:33:44;;;;;;;6.85;2.20;;;;;;;;;;5022576;28;20053;-82
2023/01/18 01:36:11;;;;;;;3.50;2.40;;;;;;;;;;5013617;28;20452;-81
2023/01/18 01:38:38;;;;;;;7.22;2.38;;;;;;;;;;5014310;28;20041;-82
2023/01/18 01:41:04;;;;;;;5.05;2.35;;;;;;;;;;5016302;28;20049;-82
2023/01/18 01:43:59;;;;;;;3.25;2.20;;;;;;;;;;5032270;28;20187;-82
2023/01/18 01:46:39;;;;;;;7.05;2.50;;;;;;;;;;5031044;28;20096;-81
2023/01/18 01:49:08;;;;;;;4.63;2.60;;;;;;;;;;5023781;28;20068;-82
2023/01/18 01:51:35;;;;;;;4.22;2.55;;;;;;;;;;5029862;28;20077;-82
2023/01/18 01:54:05;;;;;;;4.80;2.33;;;;;;;;;;5013145;28;20045;-82
2023/01/18 01:56:31;;;;;;;8.18;2.70;;;;;;;;;;5026522;28;20103;-82
2023/01/18 01:58:59;;;;;;;4.68;2.35;;;;;;;;;;5017772;28;20073;-82
2023/01/18 02:01:26;;;;;;;6.35;3.42;;;;;;;;;;5016471;28;20041;-82
2023/01/18 02:03:53;;;;;;;5.35;2.63;;;;;;;;;;5024719;28;20037;-82
2023/01/18 02:06:30;;;;;;;4.30;2.47;;;;;;;;;;5032363;28;20370;-82
2023/01/18 02:08:57;;;;;;;3.78;2.53;;;;;;;;;;5061479;28;20822;-82
2023/01/18 02:11:23;;;;;;;4.05;2.45;;;;;;;;;;5045463;28;20048;-81
2023/01/18 02:13:49;;;;;;;5.10;2.70;;;;;;;;;;5043150;28;20045;-82
2023/01/18 02:16:37;;;;;;;5.40;2.85;;;;;;;;;;5037241;28;20047;-82
2023/01/18 02:19:22;;;;;;;5.53;2.53;;;;;;;;;;5020997;28;20045;-82
2023/01/18 02:22:17;;;;;;;4.60;2.40;;;;;;;;;;5023757;28;20485;-82
2023/01/18 02:24:55;;;;;;;4.88;2.50;;;;;;;;;;5010700;28;20083;-82
2023/01/18 02:27:27;;;;;;;6.03;2.70;;;;;;;;;;5041915;28;20048;-82
2023/01/18 02:30:06;;;;;;;6.10;2.85;;;;;;;;;;5017560;28;20056;-82
2023/01/18 02:32:39;;;;;;;5.28;2.47;;;;;;;;;;5031692;28;20472;-82
2023/01/18 02:35:16;;;;;;;4.45;2.38;;;;;;;;;;5033127;28;20412;-82
2023/01/18 02:38:01;;;;;;;3.33;2.20;;;;;;;;;;5021409;28;20500;-82
2023/01/18 02:40:50;;;;;;;5.18;2.30;;;;;;;;;;5022559;28;20564;-82
2023/01/18 02:48:49;;;;;;;6.35;2.95;;;;;;;;;;5031632;28;20248;-81
2023/01/18 02:51:15;;;;;;;5.57;2.60;;;;;;;;;;5017844;28;20508;-81
2023/01/18 02:53:43;;;;;;;4.80;2.35;;;;;;;;;;5025216;28;20074;-81
2023/01/18 02:56:21;;;;;;;5.70;2.38;;;;;;;;;;5032353;28;20056;-82
2023/01/18 02:58:49;;;;;;;3.35;2.67;;;;;;;;;;5030748;28;20042;-82
2023/01/18 03:01:25;;;;;;;6.90;2.20;;;;;;;;;;5029642;28;20509;-82
2023/01/18 03:03:53;;;;;;;5.93;2.40;;;;;;;;;;5029432;28;20116;-82
2023/01/18 03:06:20;;;;;;;4.75;2.47;;;;;;;;;;5031911;28;20057;-83
2023/01/18 03:08:51;;;;;;;3.95;2.33;;;;;;;;;;5031696;28;20512;-82
2023/01/18 03:11:26;;;;;;;3.13;2.30;;;;;;;;;;5052384;28;20079;-82
2023/01/18 03:14:06;;;;;;;6.63;2.22;;;;;;;;;;5034271;28;20051;-81
2023/01/18 03:16:38;;;;;;;3.40;2.20;;;;;;;;;;5027546;28;20077;-82
2023/01/18 03:21:52;;;;;;;4.25;1.92;;;;;;;;;;5036408;28;20049;-81
2023/01/18 03:24:18;;;;;;;6.78;2.63;;;;;;;;;;5036993;28;20484;-81
2023/01/18 03:26:45;;;;;;;5.05;3.05;;;;;;;;;;5017488;28;20053;-82
2023/01/18 03:34:50;;;;;;;5.90;2.30;;;;;;;;;;5023158;28;20041;-82
2023/01/18 03:37:20;;;;;;;2.85;2.33;;;;;;;;;;5053478;28;20370;-82
2023/01/18 03:39:47;;;;;;;5.18;2.63;;;;;;;;;;5033986;28;20041;-82
2023/01/18 03:42:28;;;;;;;5.30;2.42;;;;;;;;;;5027915;28;20037;-82
2023/01/18 03:45:21;;;;;;;2.78;2.38;;;;;;;;;;5021343;28;20046;-82
2023/01/18 03:47:49;;;;;;;7.40;2.40;;;;;;;;;;5031466;28;20057;-81
2023/01/18 03:50:15;;;;;;;3.92;2.30;;;;;;;;;;5028324;28;20053;-81
2023/01/18 03:52:42;;;;;;;9.35;2.50;;;;;;;;;;5023568;28;20060;-82
2023/01/18 03:55:15;;;;;;;7.50;2.40;;;;;;;;;;5021009;28;20056;-82
2023/01/18 03:57:46;;;;;;;3.42;2.22;;;;;;;;;;5018465;28;20449;-81
2023/01/18 04:00:13;;;;;;;5.15;2.53;;;;;;;;;;5025003;28;20045;-82
2023/01/18 04:02:40;;;;;;;4.30;2.38;;;;;;;;;;5042054;28;20461;-82
2023/01/18 04:05:06;;;;;;;3.80;2.10;;;;;;;;;;5026265;28;20046;-82
2023/01/18 04:07:32;;;;;;;6.63;2.45;;;;;;;;;;5032014;28;20053;-82
2023/01/18 04:09:59;;;;;;;6.75;2.40;;;;;;;;;;5039055;28;20048;-82
2023/01/18 04:12:25;;;;;;;3.00;2.17;;;;;;;;;;5022689;28;20042;-82
2023/01/18 04:14:51;;;;;;;9.32;2.55;;;;;;;;;;5033702;28;20064;-81
2023/01/18 04:17:17;;;;;;;4.07;2.60;;;;;;;;;;5031259;28;20140;-82
2023/01/18 04:19:44;;;;;;;2.70;2.00;;;;;;;;;;5046900;28;20050;-82
2023/01/18 04:22:10;;;;;;;7.22;2.60;;;;;;;;;;5032837;28;20077;-83
2023/01/18 04:24:36;;;;;;;4.03;2.35;;;;;;;;;;5028945;28;20048;-82
2023/01/18 04:27:02;;;;;;;4.93;2.20;;;;;;;;;;5024339;28;20053;-81
2023/01/18 04:29:28;;;;;;;5.00;2.42;;;;;;;;;;5005293;28;20068;-82
2023/01/18 04:31:54;;;;;;;2.10;1.90;;;;;;;;;;5018007;28;20129;-82
2023/01/18 04:34:23;;;;;;;4.15;2.58;;;;;;;;;;5023868;28;20359;-82
2023/01/18 04:36:52;;;;;;;3.40;2.20;;;;;;;;;;5026725;28;20041;-82
2023/01/18 04:39:18;;;;;;;2.70;2.20;;;;;;;;;;5027071;28;20083;-82
2023/01/18 04:41:45;;;;;;;3.47;2.20;;;;;;;;;;5019314;28;20049;-83
2023/01/18 04:44:11;;;;;;;6.95;2.40;;;;;;;;;;5028095;28;20862;-82
2023/01/18 04:46:37;;;;;;;3.40;2.42;;;;;;;;;;5022047;28;20490;-82
2023/01/18 04:49:04;;;;;;;4.07;2.30;;;;;;;;;;5023132;28;20438;-81
2023/01/18 04:51:31;;;;;;;6.25;2.67;;;;;;;;;;5023154;28;20188;-81
2023/01/18 04:53:58;;;;;;;5.47;3.15;;;;;;;;;;5024138;28;20103;-82
2023/01/18 04:56:24;;;;;;;4.28;2.47;;;;;;;;;;5026228;28;20378;-82
2023/01/18 04:58:53;;;;;;;4.53;2.63;;;;;;;;;;5019627;28;20037;-82
2023/01/18 05:01:20;;;;;;;5.18;2.70;;;;;;;;;;5022585;28;20040;-81
2023/01/18 05:03:46;;;;;;;6.70;2.58;;;;;;;;;;5024307;28;20045;-82
2023/01/18 05:06:13;;;;;;;7.68;2.95;;;;;;;;;;5025719;28;20500;-82
2023/01/18 05:08:39;;;;;;;4.63;2.70;;;;;;;;;;5024917;28;20436;-83
2023/01/18 05:11:10;;;;;;;3.95;2.55;;;;;;;;;;5037512;28;20037;-81
2023/01/18 05:13:36;;;;;;;5.45;2.60;;;;;;;;;;5031430;28;20077;-81
2023/01/18 05:16:03;;;;;;;8.20;2.95;;;;;;;;;;5042894;28;20045;-81
2023/01/18 05:18:29;;;;;;;5.30;2.67;;;;;;;;;;5016902;28;20093;-81
2023/01/18 05:20:55;;;;;;;3.35;2.70;;;;;;;;;;5031030;28;20103;-82
2023/01/18 05:23:22;;;;;;;5.28;3.05;;;;;;;;;;5031688;28;20485;-82
2023/01/18 05:25:57;;;;;;;7.25;3.42;;;;;;;;;;5030376;28;20052;-82
2023/01/18 05:28:25;;;;;;;4.72;2.58;;;;;;;;;;5012871;28;20045;-82
2023/01/18 05:30:51;;;;;;;5.10;2.83;;;;;;;;;;5038761;28;20049;-82
2023/01/18 05:33:18;;;;;;;6.38;2.97;;;;;;;;;;5031855;28;20450;-82
2023/01/18 05:35:51;;;;;;;4.35;3.03;;;;;;;;;;5051395;28;20046;-82
2023/01/18 05:38:17;;;;;;;7.68;3.28;;;;;;;;;;5035815;28;20049;-82
2023/01/18 05:40:44;;;;;;;11.38;3.00;;;;;;;;;;5040327;28;20034;-82
2023/01/18 05:43:10;;;;;;;4.75;2.75;;;;;;;;;;5033301;28;20072;-83
2023/01/18 05:45:36;;;;;;;7.22;3.92;;;;;;;;;;5047092;28;20099;-83
2023/01/18 05:48:03;;;;;;;7.40;2.97;;;;;;;;;;5037006;28;20046;-82
2023/01/18 05:50:29;;;;;;;9.00;3.28;;;;;;;;;;5033224;28;20197;-82
2023/01/18 05:52:57;;;;;;;4.80;3.17;;;;;;;;;;5027905;28;20064;-81
2023/01/18 05:55:23;;;;;;;6.43;3.10;;;;;;;;;;5028308;28;20057;-82
2023/01/18 05:57:49;;;;;;;4.35;3.03;;;;;;;;;;5027034;28;20091;-82
2023/01/18 06:00:15;;;;;;;4.50;2.85;;;;;;;;;;5023626;28;20049;-81
2023/01/18 06:02:41;;;;;;;8.40;3.40;;;;;;;;;;5046018;28;20041;-81
2023/01/18 06:05:07;;;;;;;6.10;2.90;;;;;;;;;;5044167;28;20044;-82
2023/01/18 06:07:33;;;;;;;4.75;3.30;;;;;;;;;;5035637;28;20045;-82
2023/01/18 06:09:59;;;;;;;6.53;3.38;;;;;;;;;;5032280;28;20134;-81
2023/01/18 06:12:25;;;;;;;5.78;3.13;;;;;;;;;;5032265;28;20084;-82
2023/01/18 06:14:51;;;;;;;7.28;3.35;;;;;;;;;;5034559;28;20464;-82
2023/01/18 06:17:17;;;;;;;4.78;3.13;;;;;;;;;;5033123;28;20050;-82
2023/01/18 06:19:43;;;;;;;7.95;4.00;;;;;;;;;;5028280;28;20067;-82
2023/01/18 06:22:09;;;;;;;7.13;2.97;;;;;;;;;;5032875;28;20038;-82
2023/01/18 06:24:35;;;;;;;6.20;3.05;;;;;;;;;;5042252;28;20045;-82
2023/01/18 06:27:03;;;;;;;8.70;3.17;;;;;;;;;;5027545;28;20037;-82
2023/01/18 06:29:29;;;;;;;6.88;2.80;;;;;;;;;;5036795;28;20044;-83
2023/01/18 06:31:55;;;;;;;3.03;2.55;;;;;;;;;;5029746;28;20050;-83
2023/01/18 06:34:21;;;;;;;5.10;2.78;;;;;;;;;;5044888;28;20044;-82
2023/01/18 06:36:47;;;;;;;3.80;2.30;;;;;;;;;;5054778;28;20041;-82
2023/01/18 06:39:13;;;;;;;5.30;2.22;;;;;;;;;;5032880;28;20378;-82
2023/01/18 06:41:39;;;;;;;3.92;2.30;;;;;;;;;;5034479;28;20053;-82
2023/01/18 06:44:05;;;;;;;5.05;2.67;;;;;;;;;;5025305;28;20049;-82
2023/01/18 06:46:31;;;;;;;5.32;2.55;;;;;;;;;;5023071;28;20383;-82
2023/01/18 06:48:57;;;;;;;5.10;2.28;;;;;;;;;;5046841;28;20048;-82
2023/01/18 06:51:23;;;;;;;3.47;2.17;;;;;;;;;;5049701;28;20123;-82
2023/01/18 06:53:49;;;;;;;4.60;1.92;;;;;;;;;;5034938;28;20060;-81
2023/01/18 06:56:16;;;;;;;2.75;2.17;;;;;;;;;;5033800;28;20436;-81
2023/01/18 06:58:43;;;;;;;5.45;2.63;;;;;;;;;;5034626;28;20061;-81
2023/01/18 07:01:09;;;;;;;6.70;2.30;;;;;;;;;;5027875;28;20045;-81
2023/01/18 07:03:35;;;;;;;5.13;2.60;;;;;;;;;;5025917;28;20046;-81
2023/01/18 07:06:02;;;;;;;3.45;2.40;;;;;;;;;;5025323;28;20046;-81
2023/01/18 07:08:29;;;;;;;5.03;2.90;;;;;;;;;;5018783;28;20057;-81
2023/01/18 07:10:56;;;;;;;9.52;2.50;;;;;;;;;;5017586;28;20046;-80
2023/01/18 07:13:22;;;;;;;6.00;2.90;;;;;;;;;;5024711;28;20042;-80
2023/01/18 07:15:53;;;;;;;5.57;2.47;;;;;;;;;;5020651;28;20505;-81
2023/01/18 07:18:19;;;;;;;2.72;2.42;;;;;;;;;;5037667;28;20076;-80
2023/01/18 07:20:46;;;;;;;5.45;2.97;;;;;;;;;;5019687;28;20060;-81
2023/01/18 07:23:12;;;;;;;4.55;2.50;;;;;;;;;;5019370;28;20096;-81
2023/01/18 07:25:38;;;;;;;3.53;2.20;;;;;;;;;;5027004;28;20390;-81
2023/01/18 07:28:04;;;;;;;4.70;2.72;;;;;;;;;;5033183;28;20037;-81
2023/01/18 07:30:30;;;;;;;3.42;2.58;;;;;;;;;;5016513;28;20531;-81
2023/01/18 07:32:56;;;;;;;6.38;2.70;;;;;;;;;;5027802;28;20044;-80
2023/01/18 07:35:22;;;;;;;5.05;2.63;;;;;;;;;;5031609;28;20114;-83
2023/01/18 07:37:49;;;;;;;4.47;2.63;;;;;;;;;;5018778;28;20046;-82
2023/01/18 07:40:15;;;;;;;6.20;2.80;;;;;;;;;;5020658;28;20037;-82
2023/01/18 07:42:41;;;;;;;6.88;2.80;;;;;;;;;;5042751;28;20088;-81
2023/01/18 07:45:08;;;;;;;6.60;2.65;;;;;;;;;;5034382;28;20045;-82
2023/01/18 07:47:35;;;;;;;5.32;2.67;;;;;;;;;;5042412;28;20068;-81
2023/01/18 07:50:01;;;;;;;5.60;2.60;;;;;;;;;;5044371;28;20046;-81
2023/01/18 07:52:27;;;;;;;3.83;2.53;;;;;;;;;;5034780;28;20045;-81
2023/01/18 07:54:53;;;;;;;3.05;2.63;;;;;;;;;;5043296;28;20136;-82
2023/01/18 07:57:19;;;;;;;6.22;2.83;;;;;;;;;;5047774;28;20128;-82
2023/01/18 07:59:45;;;;;;;3.72;2.42;;;;;;;;;;5031763;28;20056;-81
2023/01/18 08:02:13;;;;;;;4.45;2.65;;;;;;;;;;5036017;28;20045;-82
2023/01/18 08:04:39;;;;;;;4.68;3.60;;;;;;;;;;5026003;28;20057;-81
2023/01/18 08:07:05;;;;;;;5.32;2.58;;;;;;;;;;5048681;28;20050;-82
2023/01/18 08:09:34;;;;;;;5.30;2.75;;;;;;;;;;5033608;28;20497;-81
2023/01/18 08:12:00;;;;;;;6.05;2.60;;;;;;;;;;5029325;28;20489;-80
2023/01/18 08:14:27;;;;;;;6.60;3.00;;;;;;;;;;5028462;28;20049;-80
2023/01/18 08:16:53;;;;;;;6.13;2.53;;;;;;;;;;5022893;28;20116;-78
2023/01/18 08:19:19;;;;;;;5.05;2.80;;;;;;;;;;5029783;28;20538;-80
2023/01/18 08:21:46;;;;;;;7.13;2.63;;;;;;;;;;5008922;28;20068;-78
2023/01/18 08:24:12;;;;;;;5.07;2.25;;;;;;;;;;5032442;28;20053;-80
2023/01/18 08:26:38;;;;;;;6.38;2.70;;;;;;;;;;5035280;28;20048;-81
2023/01/18 08:29:05;;;;;;;2.58;2.20;;;;;;;;;;5042613;28;20144;-80
2023/01/18 08:31:31;;;;;;;2.42;2.00;;;;;;;;;;5033475;28;20151;-80
2023/01/18 08:33:57;;;;;;;6.20;2.83;;;;;;;;;;5032844;28;20053;-80
2023/01/18 08:36:24;;;;;;;3.97;2.30;;;;;;;;;;5017180;28;20045;-80
2023/01/18 08:38:50;;;;;;;3.97;2.75;;;;;;;;;;5059432;28;20073;-79
2023/01/18 08:41:17;;;;;;;8.70;3.00;;;;;;;;;;5021908;28;20041;-80
2023/01/18 08:43:44;;;;;;;6.03;2.83;;;;;;;;;;5029633;28;20049;-80
2023/01/18 08:46:10;;;;;;;4.43;2.58;;;;;;;;;;5020155;28;20049;-80
2023/01/18 08:48:36;;;;;;;4.25;2.80;;;;;;;;;;5028468;28;20407;-80
2023/01/18 08:51:02;;;;;;;6.07;2.53;;;;;;;;;;5023579;28;20794;-79
2023/01/18 08:53:29;;;;;;;4.03;2.63;;;;;;;;;;5024944;28;20053;-79
2023/01/18 08:55:55;;;;;;;5.82;2.70;;;;;;;;;;5025631;28;20470;-79
2023/01/18 08:58:21;;;;;;;5.53;2.78;;;;;;;;;;5024773;28;20049;-79
2023/01/18 09:00:52;;;;;;;3.70;2.60;;;;;;;;;;5024209;28;20045;-79
2023/01/18 09:03:19;;;;;;;5.40;2.95;;;;;;;;;;5025008;28;20103;-79
2023/01/18 09:05:45;;;;;;;5.85;3.08;;;;;;;;;;5025440;28;20096;-80
2023/01/18 09:08:11;;;;;;;6.55;2.80;;;;;;;;;;5021651;28;20988;-80
2023/01/18 09:10:37;;;;;;;8.68;2.83;;;;;;;;;;5024944;28;20477;-80
2023/01/18 09:13:04;;;;;;;7.72;2.75;;;;;;;;;;5023655;28;20113;-79
2023/01/18 09:15:31;;;;;;;6.88;2.83;;;;;;;;;;5027383;28;20076;-79
2023/01/18 09:17:57;;;;;;;8.38;3.05;;;;;;;;;;5018871;28;20055;-80
2023/01/18 09:20:24;;;;;;;5.90;2.70;;;;;;;;;;5023747;28;20049;-80
2023/01/18 09:22:50;;;;;;;7.68;3.13;;;;;;;;;;5031112;28;20120;-79
2023/01/18 09:25:17;;;;;;;6.40;2.70;;;;;;;;;;5030702;28;20050;-79
2023/01/18 09:27:45;;;;;;;6.75;3.00;;;;;;;;;;5009798;28;20042;-79
2023/01/18 09:30:11;;;;;;;4.75;2.80;;;;;;;;;;5011098;28;20137;-80
2023/01/18 09:32:37;;;;;;;4.50;2.80;;;;;;;;;;5025200;28;20042;-79
2023/01/18 09:35:04;;;;;;;4.93;2.75;;;;;;;;;;5027645;28;20056;-80
2023/01/18 09:37:31;;;;;;;5.15;2.92;;;;;;;;;;5024510;28;20045;-80
2023/01/18 09:39:59;;;;;;;5.70;2.90;;;;;;;;;;5031755;28;20045;-79
2023/01/18 09:42:28;;;;;;;9.65;2.90;;;;;;;;;;5027729;28;20588;-79
2023/01/18 09:44:58;;;;;;;3.75;3.10;;;;;;;;;;5029905;28;20045;-79
2023/01/18 09:47:24;;;;;;;6.20;3.05;;;;;;;;;;5027493;28;20042;-79
2023/01/18 09:49:55;;;;;;;7.45;3.30;;;;;;;;;;5030516;28;20125;-79
2023/01/18 09:52:30;;;;;;;8.43;3.13;;;;;;;;;;5020820;28;20592;-80
2023/01/18 09:55:10;;;;;;;3.85;2.40;;;;;;;;;;5028114;28;20180;-80
2023/01/18 09:57:48;;;;;;;3.20;2.22;;;;;;;;;;5026896;28;20378;-80
2023/01/18 10:00:20;;;;;;;4.43;2.60;;;;;;;;;;5022219;28;20125;-80
2023/01/18 10:02:48;;;;;;;5.82;3.10;;;;;;;;;;5035434;28;20068;-80
2023/01/18 10:05:17;;;;;;;5.15;3.28;;;;;;;;;;5025069;28;20160;-80
2023/01/18 10:08:01;;;;;;;4.00;2.70;;;;;;;;;;5030878;28;20052;-80
2023/01/18 10:10:30;;;;;;;3.92;2.63;;;;;;;;;;5029117;28;20063;-80
2023/01/18 10:13:07;;;;;;;3.42;2.50;;;;;;;;;;5023032;28;20041;-80
2023/01/18 10:15:35;;;;;;;5.95;2.47;;;;;;;;;;5030323;28;20148;-79
2023/01/18 10:18:01;;;;;;;11.70;2.72;;;;;;;;;;5023964;28;20058;-79
2023/01/18 10:20:44;;;;;;;3.90;2.40;;;;;;;;;;5029798;28;20053;-79
2023/01/18 10:23:19;;;;;;;4.22;2.38;;;;;;;;;;5021103;28;20046;-79
2023/01/18 10:25:56;;;;;;;3.92;2.22;;;;;;;;;;5022469;28;20135;-79
2023/01/18 10:28:25;;;;;;;6.38;2.70;;;;;;;;;;5019359;28;20056;-79
2023/01/18 10:30:51;;;;;;;7.25;2.40;;;;;;;;;;5029408;28;20397;-79
2023/01/18 10:33:19;;;;;;;6.43;2.63;;;;;;;;;;5027987;28;20040;-79
2023/01/18 10:35:48;;;;;;;3.60;2.30;;;;;;;;;;5023489;28;20048;-79
2023/01/18 10:38:16;;;;;;;10.20;2.63;;;;;;;;;;5020887;28;20120;-80
2023/01/18 10:40:46;;;;;;;4.90;2.28;;;;;;;;;;5030697;28;20045;-80
2023/01/18 10:43:19;;;;;;;4.00;2.40;;;;;;;;;;5029367;28;20056;-80
2023/01/18 10:45:45;;;;;;;3.60;2.75;;;;;;;;;;5025177;28;20045;-80
2023/01/18 10:48:17;;;;;;;5.32;2.58;;;;;;;;;;5029208;28;20128;-80
2023/01/18 10:50:45;;;;;;;5.47;2.95;;;;;;;;;;5033568;28;20073;-80
2023/01/18 10:53:23;;;;;;;4.57;2.88;;;;;;;;;;5028006;28;20042;-80
2023/01/18 10:56:04;;;;;;;4.55;2.40;;;;;;;;;;5025262;28;20096;-79
2023/01/18 10:58:34;;;;;;;3.30;2.28;;;;;;;;;;5027289;28;20389;-79
2023/01/18 11:01:02;;;;;;;5.88;2.83;;;;;;;;;;5030330;28;20167;-79
2023/01/18 11:03:32;;;;;;;5.85;2.33;;;;;;;;;;5028959;28;20049;-80
2023/01/18 11:06:03;;;;;;;4.47;2.55;;;;;;;;;;5029233;28;20485;-80
2023/01/18 11:08:33;;;;;;;3.90;2.20;;;;;;;;;;5023179;28;20080;-80
2023/01/18 11:10:59;;;;;;;2.85;2.17;;;;;;;;;;5029187;28;20045;-80
2023/01/18 11:13:26;;;;;;;5.13;2.20;;;;;;;;;;5029521;28;20046;-80
2023/01/18 11:16:13;;;;;;;2.70;2.17;;;;;;;;;;5020811;28;20092;-79
2023/01/18 11:19:02;;;;;;;4.22;2.40;;;;;;;;;;5030238;28;20120;-80
2023/01/18 11:21:39;;;;;;;8.18;2.35;;;;;;;;;;5034029;28;20061;-80
2023/01/18 11:24:08;;;;;;;6.35;2.85;;;;;;;;;;5032258;28;20076;-79
2023/01/18 11:26:34;;;;;;;5.10;2.30;;;;;;;;;;5028675;28;20045;-79
2023/01/18 11:29:07;;;;;;;3.88;2.80;;;;;;;;;;5029494;28;20045;-80
2023/01/18 11:31:44;;;;;;;3.87;2.63;;;;;;;;;;5039178;28;20124;-80
2023/01/18 11:34:19;;;;;;;4.18;2.28;;;;;;;;;;5025181;28;20319;-80
2023/01/18 11:36:45;;;;;;;6.47;2.67;;;;;;;;;;5021142;28;20120;-80
2023/01/18 11:39:28;;;;;;;5.35;2.47;;;;;;;;;;5022254;28;20049;-80
2023/01/18 11:42:13;;;;;;;4.00;2.30;;;;;;;;;;5026520;28;20041;-80
2023/01/18 11:44:43;;;;;;;3.75;2.10;;;;;;;;;;5021317;28;20091;-80
2023/01/18 11:47:14;;;;;;;5.90;2.15;;;;;;;;;;5022213;28;20133;-79
2023/01/18 11:49:52;;;;;;;3.58;2.10;;;;;;;;;;5027253;28;20096;-80
2023/01/18 11:52:34;;;;;;;5.55;2.45;;;;;;;;;;5018442;28;20053;-80
2023/01/18 11:55:02;;;;;;;5.28;2.10;;;;;;;;;;5026424;28;20169;-80
2023/01/18 11:57:28;;;;;;;5.32;1.67;;;;;;;;;;5026484;28;20124;-80
2023/01/18 11:59:54;;;;;;;9.05;2.50;;;;;;;;;;5026813;28;20076;-79
2023/01/18 12:02:40;;;;;;;3.10;2.03;;;;;;;;;;5005360;28;20029;-80
2023/01/18 12:05:16;;;;;;;4.22;1.90;;;;;;;;;;5021737;28;20114;-80
2023/01/18 12:07:48;;;;;;;6.85;2.30;;;;;;;;;;5020732;28;20505;-80
2023/01/18 12:10:20;;;;;;;3.05;1.90;;;;;;;;;;5026353;28;20045;-79
2023/01/18 12:12:56;;;;;;;3.70;1.85;;;;;;;;;;5025169;28;20037;-79
2023/01/18 12:15:28;;;;;;;4.40;2.10;;;;;;;;;;5027912;28;20037;-79
2023/01/18 12:17:57;;;;;;;6.50;2.22;;;;;;;;;;5024729;28;20049;-80
2023/01/18 12:20:40;;;;;;;3.83;1.90;;;;;;;;;;5024299;28;20061;-80
2023/01/18 12:23:10;;;;;;;3.75;2.15;;;;;;;;;;5027353;28;20128;-80
2023/01/18 12:25:39;;;;;;;5.93;2.00;;;;;;;;;;5028448;28;20048;-80
2023/01/18 12:28:08;;;;;;;6.57;1.90;;;;;;;;;;5028092;28;20033;-79
2023/01/18 12:30:40;;;;;;;3.30;2.00;;;;;;;;;;5018408;28;20098;-80
2023/01/18 12:33:13;;;;;;;4.35;1.90;;;;;;;;;;5017935;28;20049;-79
2023/01/18 12:35:48;;;;;;;2.57;2.03;;;;;;;;;;5019774;28;20091;-79
2023/01/18 12:38:24;;;;;;;4.90;2.78;;;;;;;;;;5026621;28;20509;-79
2023/01/18 12:41:10;;;;;;;5.22;2.10;;;;;;;;;;5025624;28;20362;-80
2023/01/18 12:43:39;;;;;;;5.88;2.10;;;;;;;;;;5029620;28;20478;-80
2023/01/18 12:46:24;;;;;;;7.40;2.42;;;;;;;;;;5028881;28;20050;-80
2023/01/18 12:48:53;;;;;;;5.38;2.85;;;;;;;;;;5026425;28;20054;-79
2023/01/18 12:51:21;;;;;;;5.15;2.55;;;;;;;;;;5029388;28;20524;-79
2023/01/18 12:53:58;;;;;;;4.13;2.17;;;;;;;;;;5028615;28;20033;-79
2023/01/18 12:56:31;;;;;;;3.55;2.38;;;;;;;;;;5033680;28;20045;-78
2023/01/18 12:59:11;;;;;;;4.68;2.08;;;;;;;;;;5011893;28;20057;-79
2023/01/18 13:01:42;;;;;;;4.57;2.47;;;;;;;;;;5033109;28;20041;-79
2023/01/18 13:04:13;;;;;;;4.05;2.15;;;;;;;;;;5027761;28;20080;-80
2023/01/18 13:06:41;;;;;;;3.50;2.25;;;;;;;;;;5021207;28;20489;-80
2023/01/18 13:09:17;;;;;;;2.90;2.30;;;;;;;;;;5010951;28;20116;-80
2023/01/18 13:11:44;;;;;;;7.38;2.60;;;;;;;;;;5029742;28;20048;-79
2023/01/18 13:14:32;;;;;;;9.85;2.72;;;;;;;;;;5027609;28;20400;-80
2023/01/18 13:16:58;;;;;;;5.28;2.75;;;;;;;;;;5025206;28;20041;-80
2023/01/18 13:19:57;;;;;;;9.88;2.90;;;;;;;;;;5026917;28;20056;-79
2023/01/18 13:22:33;;;;;;;3.25;2.35;;;;;;;;;;5030723;28;20042;-80
2023/01/18 13:25:20;;;;;;;6.88;2.40;;;;;;;;;;5025953;28;20141;-79
2023/01/18 13:28:02;;;;;;;4.50;2.40;;;;;;;;;;5028486;28;20220;-80
2023/01/18 13:30:30;;;;;;;8.73;2.55;;;;;;;;;;5024435;28;20104;-80
2023/01/18 13:32:56;;;;;;;10.10;3.15;;;;;;;;;;5030593;28;20038;-78
2023/01/18 13:35:34;;;;;;;3.78;2.00;;;;;;;;;;5028251;28;20059;-78
2023/01/18 13:38:01;;;;;;;6.15;2.50;;;;;;;;;;5031173;28;20095;-79
2023/01/18 13:40:37;;;;;;;12.70;3.08;;;;;;;;;;5020470;28;20064;-80
2023/01/18 13:43:04;;;;;;;6.97;2.47;;;;;;;;;;5029900;28;20484;-80
2023/01/18 13:45:30;;;;;;;7.45;2.17;;;;;;;;;;5023419;28;20059;-80
2023/01/18 13:47:59;;;;;;;4.75;1.73;;;;;;;;;;5027416;28;20041;-80
2023/01/18 13:50:30;;;;;;;8.65;2.80;;;;;;;;;;5030651;28;20041;-79
2023/01/18 13:53:22;;;;;;;8.38;2.42;;;;;;;;;;5029757;28;20041;-79
2023/01/18 13:56:09;;;;;;;9.18;2.42;;;;;;;;;;5024033;28;20049;-80
2023/01/18 13:58:37;;;;;;;6.13;2.33;;;;;;;;;;5031029;28;20077;-79
2023/01/18 14:01:04;;;;;;;11.13;2.03;;;;;;;;;;5029844;28;20493;-79
2023/01/18 14:03:32;;;;;;;6.25;1.83;;;;;;;;;;5027954;28;20048;-79
2023/01/18 14:06:03;;;;;;;9.60;2.50;;;;;;;;;;5031396;28;20064;-80
2023/01/18 14:08:33;;;;;;;6.25;2.55;;;;;;;;;;5026866;28;20489;-80
2023/01/18 14:11:02;;;;;;;9.07;2.50;;;;;;;;;;5025404;28;20172;-79
2023/01/18 14:13:44;;;;;;;8.75;2.42;;;;;;;;;;5027106;28;20171;-79
2023/01/18 14:16:31;;;;;;;3.97;1.88;;;;;;;;;;5032322;28;20438;-79
2023/01/18 14:19:03;;;;;;;3.00;1.70;;;;;;;;;;5027088;28;20053;-79
2023/01/18 14:21:55;;;;;;;2.22;1.65;;;;;;;;;;5031880;28;20056;-78
2023/01/18 14:24:40;;;;;;;3.80;2.20;;;;;;;;;;5007414;28;20054;-78
2023/01/18 14:27:08;;;;;;;4.55;1.92;;;;;;;;;;5032777;28;20123;-79
2023/01/18 14:29:43;;;;;;;5.55;2.17;;;;;;;;;;5033347;28;20046;-81
2023/01/18 14:32:13;;;;;;;2.45;1.60;;;;;;;;;;5035343;28;20092;-79
2023/01/18 14:34:40;;;;;;;5.68;1.95;;;;;;;;;;5033975;28;20054;-81
2023/01/18 14:37:25;;;;;;;6.00;1.85;;;;;;;;;;5033669;28;20049;-80
2023/01/18 14:40:14;;;;;;;5.82;2.15;;;;;;;;;;5028042;28;20148;-80
2023/01/18 14:42:54;;;;;;;4.13;2.10;;;;;;;;;;5026998;28;20048;-80
2023/01/18 14:45:26;;;;;;;13.77;2.33;;;;;;;;;;5031218;28;20064;-79
2023/01/18 14:47:52;;;;;;;3.10;1.70;;;;;;;;;;5034000;28;20144;-79
2023/01/18 14:50:19;;;;;;;5.18;1.73;;;;;;;;;;5027610;28;20042;-79
2023/01/18 14:52:46;;;;;;;4.85;2.33;;;;;;;;;;5030580;28;20053;-79
2023/01/18 14:55:24;;;;;;;10.10;2.00;;;;;;;;;;5027724;28;20046;-80
2023/01/18 14:57:51;;;;;;;6.25;2.58;;;;;;;;;;5032009;28;20108;-80
2023/01/18 15:00:17;;;;;;;8.45;2.88;;;;;;;;;;5029116;28;20073;-80
2023/01/18 15:02:44;;;;;;;5.60;2.45;;;;;;;;;;5037273;28;20484;-79
2023/01/18 15:05:15;;;;;;;7.07;3.00;;;;;;;;;;5024525;28;20049;-80
2023/01/18 15:07:43;;;;;;;12.70;3.88;;;;;;;;;;5031148;28;20045;-79
2023/01/18 15:10:09;;;;;;;4.57;2.35;;;;;;;;;;5028455;28;20068;-79
2023/01/18 15:12:37;;;;;;;9.07;2.90;;;;;;;;;;5023381;28;20102;-79
2023/01/18 15:15:09;;;;;;;8.15;3.00;;;;;;;;;;5030262;28;20130;-80
2023/01/18 15:17:36;;;;;;;17.88;3.95;;;;;;;;;;5031970;28;20496;-80
2023/01/18 15:20:07;;;;;;;9.43;3.33;;;;;;;;;;5027312;28;20440;-80
2023/01/18 15:22:36;;;;;;;8.25;2.67;;;;;;;;;;5031777;28;20365;-80
2023/01/18 15:25:02;;;;;;;7.32;2.75;;;;;;;;;;5025775;28;20463;-80
2023/01/18 15:27:31;;;;;;;14.18;2.75;;;;;;;;;;5028517;28;20044;-80
2023/01/18 15:29:58;;;;;;;9.77;2.90;;;;;;;;;;5032108;28;20080;-80
2023/01/18 15:32:25;;;;;;;10.18;2.42;;;;;;;;;;5032164;28;20045;-80